createdAt,value
2022-08-30T00:02:25.371Z,5.50
2022-08-30T00:04:54.352Z,5.20
2022-08-30T00:07:22.785Z,5.30
2022-08-30T00:09:50.338Z,5.30
2022-08-30T00:12:18.017Z,5.60
2022-08-30T00:14:45.708Z,4.70
2022-08-30T00:17:13.773Z,5.10
2022-08-30T00:19:41.468Z,5.00
2022-08-30T00:22:10.205Z,4.70
2022-08-30T00:24:38.387Z,4.50
2022-08-30T00:27:06.081Z,4.50
2022-08-30T00:29:33.713Z,4.30
2022-08-30T00:32:02.720Z,5.00
2022-08-30T00:34:32.324Z,4.60
2022-08-30T00:37:01.023Z,4.20
2022-08-30T00:39:28.677Z,4.90
2022-08-30T00:41:56.348Z,5.00
2022-08-30T00:44:24.306Z,5.00
2022-08-30T00:46:51.953Z,4.70
2022-08-30T00:49:19.526Z,4.60
2022-08-30T00:51:48.068Z,5.10
2022-08-30T00:54:16.909Z,5.00
2022-08-30T00:56:48.016Z,4.80
2022-08-30T00:59:16.205Z,4.70
2022-08-30T01:01:44.502Z,4.60
2022-08-30T01:04:15.087Z,5.00
2022-08-30T01:06:42.764Z,4.50
2022-08-30T01:09:10.830Z,4.70
2022-08-30T01:11:42.800Z,4.50
2022-08-30T01:14:12.371Z,5.20
2022-08-30T01:16:44.080Z,5.20
2022-08-30T01:19:30.484Z,4.90
2022-08-30T01:22:18.532Z,4.50
2022-08-30T01:24:49.146Z,4.70
2022-08-30T01:27:22.188Z,4.40
2022-08-30T01:29:51.656Z,3.80
2022-08-30T01:32:27.343Z,4.50
2022-08-30T01:34:57.917Z,4.50
2022-08-30T01:37:32.780Z,5.20
2022-08-30T01:40:00.932Z,4.70
2022-08-30T01:42:28.863Z,4.90
2022-08-30T01:44:56.459Z,5.60
2022-08-30T01:47:24.118Z,5.00
2022-08-30T01:49:52.264Z,5.20
2022-08-30T01:52:20.730Z,4.70
2022-08-30T01:54:48.473Z,4.50
2022-08-30T01:57:21.374Z,4.90
2022-08-30T01:59:50.425Z,5.40
2022-08-30T02:02:24.343Z,4.30
2022-08-30T02:04:54.612Z,4.40
2022-08-30T02:07:24.252Z,4.80
2022-08-30T02:09:53.343Z,4.70
2022-08-30T02:12:21.100Z,4.80
2022-08-30T02:14:49.178Z,4.40
2022-08-30T02:17:19.421Z,5.00
2022-08-30T02:19:47.187Z,5.00
2022-08-30T02:22:14.971Z,4.90
2022-08-30T02:24:42.605Z,4.70
2022-08-30T02:27:10.470Z,5.50
2022-08-30T02:29:38.296Z,5.70
2022-08-30T02:32:06.106Z,7.80
2022-08-30T02:34:33.796Z,6.20
2022-08-30T02:37:01.475Z,6.80
2022-08-30T02:39:29.175Z,6.10
2022-08-30T02:41:57.052Z,6.10
2022-08-30T02:44:24.712Z,6.40
2022-08-30T02:46:52.441Z,6.20
2022-08-30T02:49:35.722Z,5.80
2022-08-30T02:52:05.971Z,5.70
2022-08-30T02:54:33.694Z,5.40
2022-08-30T02:57:04.880Z,5.70
2022-08-30T02:59:33.581Z,5.80
2022-08-30T03:02:01.205Z,5.90
2022-08-30T03:04:29.500Z,5.90
2022-08-30T03:06:57.104Z,5.30
2022-08-30T03:09:24.875Z,5.80
2022-08-30T03:11:52.496Z,5.40
2022-08-30T03:14:20.166Z,5.20
2022-08-30T03:16:48.047Z,5.60
2022-08-30T03:19:15.862Z,5.50
2022-08-30T03:21:43.639Z,5.50
2022-08-30T03:24:12.432Z,6.60
2022-08-30T03:26:44.243Z,5.20
2022-08-30T03:29:14.611Z,6.10
2022-08-30T03:31:52.544Z,5.40
2022-08-30T03:34:23.716Z,5.30
2022-08-30T03:36:54.367Z,5.40
2022-08-30T03:39:24.805Z,5.60
2022-08-30T03:41:52.552Z,5.70
2022-08-30T03:44:21.783Z,5.10
2022-08-30T03:46:51.034Z,5.40
2022-08-30T03:49:20.665Z,5.50
2022-08-30T03:51:48.636Z,5.60
2022-08-30T03:54:17.883Z,5.40
2022-08-30T03:56:45.671Z,6.40
2022-08-30T03:59:13.739Z,5.80
2022-08-30T04:01:45.952Z,5.50
2022-08-30T04:04:18.745Z,6.20
2022-08-30T04:06:49.743Z,5.90
2022-08-30T04:09:19.208Z,6.60
2022-08-30T04:11:47.344Z,5.40
2022-08-30T04:14:15.309Z,5.70
2022-08-30T04:16:43.117Z,5.80
2022-08-30T04:19:11.777Z,5.50
2022-08-30T04:21:43.290Z,5.50
2022-08-30T04:24:13.302Z,6.20
2022-08-30T04:26:40.938Z,5.50
2022-08-30T04:29:11.738Z,5.60
2022-08-30T04:31:39.579Z,5.40
2022-08-30T04:34:09.005Z,6.00
2022-08-30T04:36:36.591Z,5.80
2022-08-30T04:39:04.973Z,6.80
2022-08-30T04:41:33.119Z,5.10
2022-08-30T04:44:03.492Z,5.80
2022-08-30T04:46:31.252Z,5.80
2022-08-30T04:48:58.803Z,5.50
2022-08-30T04:51:26.419Z,6.20
2022-08-30T04:53:54.132Z,5.30
2022-08-30T04:56:24.665Z,6.70
2022-08-30T04:58:56.107Z,6.30
2022-08-30T05:01:28.984Z,6.50
2022-08-30T05:03:58.510Z,6.10
2022-08-30T05:06:31.193Z,6.50
2022-08-30T05:09:00.754Z,6.40
2022-08-30T05:11:29.023Z,7.00
2022-08-30T05:13:56.636Z,6.80
2022-08-30T05:16:24.381Z,7.00
2022-08-30T05:18:54.628Z,6.40
2022-08-30T05:21:26.621Z,7.00
2022-08-30T05:23:58.250Z,6.80
2022-08-30T05:26:30.362Z,7.60
2022-08-30T05:28:58.907Z,7.20
2022-08-30T05:31:32.328Z,9.50
2022-08-30T05:34:00.697Z,7.80
2022-08-30T05:36:33.425Z,7.60
2022-08-30T05:39:01.303Z,8.00
2022-08-30T05:41:29.083Z,7.60
2022-08-30T05:44:01.619Z,7.10
2022-08-30T05:49:07.793Z,8.90
2022-08-30T05:51:43.066Z,6.90
2022-08-30T05:54:14.637Z,7.50
2022-08-30T05:56:45.524Z,7.50
2022-08-30T05:59:14.937Z,6.60
2022-08-30T06:01:46.545Z,7.20
2022-08-30T06:04:15.326Z,7.30
2022-08-30T06:06:44.746Z,7.40
2022-08-30T06:09:14.829Z,7.50
2022-08-30T06:11:43.908Z,7.60
2022-08-30T06:14:13.240Z,8.90
2022-08-30T06:16:45.802Z,7.80
2022-08-30T06:19:16.264Z,8.10
2022-08-30T06:21:49.592Z,8.00
2022-08-30T06:24:17.811Z,7.50
2022-08-30T06:26:47.836Z,7.00
2022-08-30T06:29:19.558Z,8.30
2022-08-30T06:31:48.451Z,8.20
2022-08-30T06:34:17.119Z,7.90
2022-08-30T06:36:45.047Z,8.70
2022-08-30T06:39:12.909Z,8.00
2022-08-30T06:41:42.715Z,8.30
2022-08-30T06:44:10.653Z,8.70
2022-08-30T06:46:39.164Z,8.00
2022-08-30T06:49:07.671Z,8.10
2022-08-30T06:51:39.805Z,8.40
2022-08-30T06:54:10.865Z,7.60
2022-08-30T06:56:55.310Z,7.70
2022-08-30T06:59:27.195Z,8.40
2022-08-30T07:01:56.565Z,9.10
2022-08-30T07:04:25.280Z,10.30
2022-08-30T07:06:53.316Z,8.90
2022-08-30T07:09:22.976Z,8.80
2022-08-30T07:11:52.882Z,9.00
2022-08-30T07:14:23.781Z,9.20
2022-08-30T07:16:52.278Z,7.90
2022-08-30T07:19:21.147Z,7.30
2022-08-30T07:21:50.257Z,7.20
2022-08-30T07:24:19.352Z,7.50
2022-08-30T07:26:51.932Z,7.30
2022-08-30T07:29:21.399Z,7.80
2022-08-30T07:31:49.936Z,7.00
2022-08-30T07:34:19.818Z,7.30
2022-08-30T07:36:49.230Z,7.20
2022-08-30T07:39:16.961Z,7.40
2022-08-30T07:41:44.674Z,7.20
2022-08-30T07:44:12.706Z,6.60
2022-08-30T07:46:41.486Z,6.20
2022-08-30T07:49:11.556Z,6.40
2022-08-30T07:51:41.084Z,6.80
2022-08-30T07:54:09.091Z,8.00
2022-08-30T07:56:36.861Z,8.50
2022-08-30T07:59:05.042Z,7.90
2022-08-30T08:01:33.189Z,8.30
2022-08-30T08:04:00.902Z,8.90
2022-08-30T08:06:29.822Z,12.70
2022-08-30T08:09:03.652Z,11.20
2022-08-30T08:11:33.985Z,9.10
2022-08-30T08:14:04.223Z,8.70
2022-08-30T08:16:36.802Z,8.60
2022-08-30T08:19:09.282Z,10.30
2022-08-30T08:21:37.932Z,7.70
2022-08-30T08:24:07.243Z,7.80
2022-08-30T08:26:37.723Z,7.80
2022-08-30T08:29:08.047Z,6.70
2022-08-30T08:31:36.914Z,6.60
2022-08-30T08:34:06.224Z,7.40
2022-08-30T08:36:36.481Z,8.30
2022-08-30T08:39:07.928Z,7.60
2022-08-30T08:42:08.920Z,7.10
2022-08-30T08:44:55.483Z,6.80
2022-08-30T08:47:52.147Z,6.00
2022-08-30T08:50:21.659Z,6.00
2022-08-30T08:53:46.310Z,5.40
2022-08-30T08:56:19.141Z,5.80
2022-08-30T08:58:52.397Z,5.10
2022-08-30T09:01:25.930Z,4.80
2022-08-30T09:03:56.162Z,4.80
2022-08-30T09:06:49.276Z,4.70
2022-08-30T09:09:26.427Z,4.60
2022-08-30T09:11:54.360Z,4.80
2022-08-30T09:14:34.848Z,4.10
2022-08-30T09:17:08.360Z,4.80
2022-08-30T09:20:02.567Z,5.50
2022-08-30T09:22:40.424Z,4.20
2022-08-30T09:25:32.459Z,4.80
2022-08-30T09:28:14.517Z,5.00
2022-08-30T09:31:01.853Z,4.70
2022-08-30T09:33:29.604Z,4.00
2022-08-30T09:36:12.620Z,5.10
2022-08-30T09:38:40.854Z,4.10
2022-08-30T09:41:41.250Z,4.30
2022-08-30T09:44:17.859Z,4.20
2022-08-30T09:47:01.304Z,4.10
2022-08-30T09:49:41.626Z,4.10
2022-08-30T09:52:23.876Z,3.90
2022-08-30T09:55:21.531Z,3.60
2022-08-30T09:58:37.591Z,3.50
2022-08-30T10:01:14.872Z,3.70
2022-08-30T10:04:13.573Z,4.00
2022-08-30T10:07:10.940Z,4.50
2022-08-30T10:09:56.161Z,4.10
2022-08-30T10:12:37.266Z,4.20
2022-08-30T10:15:28.707Z,3.30
2022-08-30T10:18:09.248Z,3.80
2022-08-30T10:20:50.174Z,3.50
2022-08-30T10:23:56.477Z,3.10
2022-08-30T10:26:33.279Z,3.10
2022-08-30T10:29:16.044Z,3.80
2022-08-30T10:31:54.592Z,3.60
2022-08-30T10:34:31.682Z,3.90
2022-08-30T10:37:31.537Z,3.80
2022-08-30T10:40:30.667Z,3.90
2022-08-30T10:43:04.487Z,4.10
2022-08-30T10:45:40.596Z,3.80
2022-08-30T10:48:23.533Z,3.50
2022-08-30T10:50:56.874Z,3.70
2022-08-30T10:53:39.253Z,3.80
2022-08-30T10:56:21.248Z,3.00
2022-08-30T10:58:52.304Z,3.20
2022-08-30T11:01:46.630Z,2.70
2022-08-30T11:04:47.088Z,2.40
2022-08-30T11:08:20.555Z,2.60
2022-08-30T11:11:12.744Z,2.90
2022-08-30T11:13:43.074Z,3.00
2022-08-30T11:16:16.161Z,2.50
2022-08-30T11:21:43.493Z,2.40
2022-08-30T11:24:25.660Z,2.50
2022-08-30T11:27:00.989Z,2.70
2022-08-30T11:29:44.963Z,2.60
2022-08-30T11:32:12.517Z,1.80
2022-08-30T11:34:46.664Z,2.30
2022-08-30T11:37:44.718Z,2.00
2022-08-30T11:40:55.290Z,1.80
2022-08-30T11:43:36.552Z,1.90
2022-08-30T11:46:28.344Z,2.10
2022-08-30T11:49:14.152Z,1.90
2022-08-30T11:52:32.668Z,2.30
2022-08-30T11:55:26.869Z,2.30
2022-08-30T11:58:33.975Z,2.50
2022-08-30T12:01:51.190Z,2.10
2022-08-30T12:04:19.692Z,2.00
2022-08-30T12:07:04.119Z,2.80
2022-08-30T12:09:34.807Z,2.50
2022-08-30T12:12:09.451Z,2.10
2022-08-30T12:14:51.694Z,2.00
2022-08-30T12:18:15.352Z,1.60
2022-08-30T12:20:49.582Z,1.60
2022-08-30T12:23:23.279Z,1.80
2022-08-30T12:26:11.344Z,1.90
2022-08-30T12:28:42.117Z,2.00
2022-08-30T12:31:26.949Z,1.90
2022-08-30T12:34:03.150Z,2.00
2022-08-30T12:36:55.270Z,2.20
2022-08-30T12:39:30.326Z,1.80
2022-08-30T12:42:24.416Z,2.20
2022-08-30T12:45:00.954Z,2.00
2022-08-30T12:48:01.323Z,2.10
2022-08-30T12:50:53.575Z,2.40
2022-08-30T12:53:43.147Z,2.40
2022-08-30T12:56:30.474Z,2.00
2022-08-30T12:59:05.872Z,1.70
2022-08-30T13:01:37.329Z,2.10
2022-08-30T13:04:27.528Z,1.90
2022-08-30T13:07:02.110Z,1.80
2022-08-30T13:09:40.497Z,1.70
2022-08-30T13:12:26.716Z,2.00
2022-08-30T13:15:17.936Z,1.50
2022-08-30T13:17:46.982Z,2.30
2022-08-30T13:20:17.305Z,1.90
2022-08-30T13:23:08.972Z,1.60
2022-08-30T13:25:39.932Z,1.60
2022-08-30T13:28:08.506Z,1.60
2022-08-30T13:30:36.219Z,1.50
2022-08-30T13:33:04.074Z,2.40
2022-08-30T13:35:33.262Z,2.70
2022-08-30T13:38:02.569Z,2.50
2022-08-30T13:40:30.540Z,2.10
2022-08-30T13:42:58.628Z,3.10
2022-08-30T13:45:42.285Z,2.60
2022-08-30T13:48:13.941Z,2.60
2022-08-30T13:50:43.127Z,2.40
2022-08-30T13:53:10.972Z,2.60
2022-08-30T13:55:41.506Z,2.40
2022-08-30T13:58:10.551Z,2.80
2022-08-30T14:00:41.220Z,2.20
2022-08-30T14:03:08.981Z,2.50
2022-08-30T14:05:49.331Z,2.70
2022-08-30T14:11:16.337Z,3.00
2022-08-30T14:16:41.520Z,2.30
2022-08-30T14:19:12.226Z,2.40
2022-08-30T14:21:40.355Z,2.50
2022-08-30T14:24:08.756Z,2.30
2022-08-30T14:26:45.215Z,1.90
2022-08-30T14:29:17.323Z,1.80
2022-08-30T14:31:45.481Z,2.40
2022-08-30T14:34:16.575Z,2.30
2022-08-30T14:36:46.032Z,2.10
2022-08-30T14:39:18.121Z,1.90
2022-08-30T14:41:50.537Z,2.10
2022-08-30T14:44:20.847Z,1.80
2022-08-30T14:46:48.991Z,2.10
2022-08-30T14:49:20.105Z,2.20
2022-08-30T14:51:48.700Z,1.90
2022-08-30T14:54:19.745Z,2.00
2022-08-30T14:56:47.623Z,1.80
2022-08-30T14:59:15.931Z,2.20
2022-08-30T15:01:45.218Z,1.80
2022-08-30T15:04:15.294Z,1.80
2022-08-30T15:06:47.513Z,1.70
2022-08-30T15:09:23.118Z,2.10
2022-08-30T15:11:55.127Z,1.60
2022-08-30T15:14:24.512Z,1.90
2022-08-30T15:16:55.293Z,1.70
2022-08-30T15:19:23.043Z,1.90
2022-08-30T15:21:52.038Z,1.90
2022-08-30T15:24:29.298Z,1.40
2022-08-30T15:27:00.531Z,1.60
2022-08-30T15:29:30.556Z,1.60
2022-08-30T15:32:02.485Z,1.80
2022-08-30T15:34:31.575Z,1.90
2022-08-30T15:37:00.257Z,2.90
2022-08-30T15:39:28.292Z,1.80
2022-08-30T15:42:01.063Z,1.90
2022-08-30T15:44:31.531Z,2.30
2022-08-30T15:46:59.506Z,2.20
2022-08-30T15:49:27.248Z,2.40
2022-08-30T15:51:54.904Z,2.40
2022-08-30T15:54:24.109Z,2.80
2022-08-30T15:56:59.083Z,2.40
2022-08-30T15:59:29.509Z,2.60
2022-08-30T16:01:57.484Z,2.40
2022-08-30T16:04:25.655Z,1.90
2022-08-30T16:06:54.192Z,2.40
2022-08-30T16:09:22.655Z,2.00
2022-08-30T16:11:50.848Z,2.70
2022-08-30T16:14:19.012Z,2.00
2022-08-30T16:16:46.672Z,2.30
2022-08-30T16:19:14.508Z,2.50
2022-08-30T16:21:44.042Z,2.30
2022-08-30T16:24:13.702Z,2.30
2022-08-30T16:26:43.915Z,2.20
2022-08-30T16:29:13.655Z,1.90
2022-08-30T16:31:45.661Z,2.10
2022-08-30T16:34:20.119Z,2.20
2022-08-30T16:36:48.416Z,2.10
2022-08-30T16:39:17.365Z,2.20
2022-08-30T16:41:46.423Z,2.10
2022-08-30T16:44:15.997Z,2.10
2022-08-30T16:46:53.277Z,2.10
2022-08-30T16:49:25.342Z,2.40
2022-08-30T16:51:54.368Z,2.20
2022-08-30T16:54:22.815Z,2.10
2022-08-30T16:56:51.118Z,1.90
2022-08-30T16:59:19.224Z,2.10
2022-08-30T17:04:35.644Z,2.50
2022-08-30T17:07:03.577Z,2.60
2022-08-30T17:09:35.509Z,2.50
2022-08-30T17:12:03.914Z,2.50
2022-08-30T17:14:32.189Z,3.00
2022-08-30T17:17:01.357Z,2.70
2022-08-30T17:19:30.173Z,3.20
2022-08-30T17:21:58.608Z,3.20
2022-08-30T17:24:27.319Z,2.80
2022-08-30T17:26:55.626Z,3.00
2022-08-30T17:29:23.283Z,2.60
2022-08-30T17:31:51.555Z,3.00
2022-08-30T17:34:22.145Z,2.40
2022-08-30T17:36:51.633Z,3.20
2022-08-30T17:39:19.360Z,3.60
2022-08-30T17:41:50.649Z,3.40
2022-08-30T17:44:28.410Z,2.90
2022-08-30T17:46:58.281Z,2.90
2022-08-30T17:49:28.936Z,3.10
2022-08-30T17:51:58.009Z,3.20
2022-08-30T17:54:28.316Z,3.40
2022-08-30T17:56:57.756Z,2.80
2022-08-30T17:59:26.400Z,2.50
2022-08-30T18:01:57.376Z,2.50
2022-08-30T18:04:26.960Z,2.40
2022-08-30T18:06:55.633Z,2.80
2022-08-30T18:09:23.827Z,2.30
2022-08-30T18:11:51.902Z,2.40
2022-08-30T18:14:24.274Z,2.30
2022-08-30T18:16:54.223Z,3.00
2022-08-30T18:19:24.762Z,3.30
2022-08-30T18:21:53.613Z,3.00
2022-08-30T18:24:23.578Z,2.60
2022-08-30T18:26:54.687Z,3.00
2022-08-30T18:29:29.170Z,4.30
2022-08-30T18:32:03.314Z,4.30
2022-08-30T18:34:31.863Z,5.60
2022-08-30T18:37:01.515Z,5.60
2022-08-30T18:39:34.228Z,5.20
2022-08-30T18:42:06.055Z,7.70
2022-08-30T18:44:35.676Z,8.40
2022-08-30T18:47:05.672Z,7.30
2022-08-30T18:49:36.029Z,5.70
2022-08-30T18:52:08.211Z,4.20
2022-08-30T18:54:44.183Z,4.40
2022-08-30T18:57:14.801Z,3.90
2022-08-30T18:59:42.725Z,4.00
2022-08-30T19:02:15.389Z,5.20
2022-08-30T19:04:45.446Z,4.60
2022-08-30T19:07:16.264Z,5.80
2022-08-30T19:09:45.246Z,7.50
2022-08-30T19:12:13.451Z,10.00
2022-08-30T19:14:41.356Z,10.20
2022-08-30T19:17:09.540Z,8.80
2022-08-30T19:19:48.237Z,6.10
2022-08-30T19:22:20.024Z,6.70
2022-08-30T19:24:50.374Z,3.90
2022-08-30T19:27:21.308Z,3.60
2022-08-30T19:29:53.138Z,4.00
2022-08-30T19:32:23.314Z,5.00
2022-08-30T19:34:51.104Z,4.40
2022-08-30T19:37:20.040Z,4.30
2022-08-30T19:39:47.768Z,7.20
2022-08-30T19:42:15.825Z,6.60
2022-08-30T19:44:44.007Z,5.60
2022-08-30T19:47:11.817Z,5.50
2022-08-30T19:49:39.482Z,5.30
2022-08-30T19:52:07.911Z,5.70
2022-08-30T19:54:36.305Z,10.60
2022-08-30T19:57:04.346Z,10.50
2022-08-30T19:59:32.560Z,10.80
2022-08-30T20:02:00.810Z,11.20
2022-08-30T20:04:29.703Z,8.30
2022-08-30T20:06:57.665Z,7.80
2022-08-30T20:09:25.619Z,7.00
2022-08-30T20:11:55.143Z,6.40
2022-08-30T20:14:25.208Z,5.90
2022-08-30T20:16:53.472Z,6.50
2022-08-30T20:19:21.902Z,6.40
2022-08-30T20:21:55.513Z,5.90
2022-08-30T20:24:23.999Z,2.20
2022-08-30T20:24:36.993Z,6.90
2022-08-30T20:27:05.053Z,6.30
2022-08-30T20:29:34.384Z,6.00
2022-08-30T20:32:03.298Z,9.00
2022-08-30T20:34:30.920Z,8.10
2022-08-30T20:36:58.739Z,12.70
2022-08-30T20:39:26.433Z,20.20
2022-08-30T20:41:54.072Z,27.60
2022-08-30T20:44:21.809Z,23.60
2022-08-30T20:46:50.788Z,19.70
2022-08-30T20:49:19.684Z,10.50
2022-08-30T20:51:52.769Z,10.00
2022-08-30T20:54:20.652Z,11.00
2022-08-30T20:56:48.528Z,9.40
2022-08-30T20:59:16.177Z,8.30
2022-08-30T21:01:43.952Z,8.50
2022-08-30T21:04:11.667Z,8.20
2022-08-30T21:06:39.293Z,8.40
2022-08-30T21:09:09.091Z,7.30
2022-08-30T21:11:38.152Z,7.80
2022-08-30T21:14:11.287Z,7.20
2022-08-30T21:16:39.471Z,7.30
2022-08-30T21:19:07.932Z,7.80
2022-08-30T21:21:35.580Z,6.00
2022-08-30T21:24:09.441Z,7.20
2022-08-30T21:26:40.681Z,6.90
2022-08-30T21:29:10.061Z,6.10
2022-08-30T21:31:38.580Z,6.00
2022-08-30T21:34:07.288Z,6.40
2022-08-30T21:36:45.426Z,6.00
2022-08-30T21:39:28.029Z,5.70
2022-08-30T21:41:57.106Z,5.90
2022-08-30T21:44:26.878Z,5.00
2022-08-30T21:46:55.296Z,4.60
2022-08-30T21:49:24.410Z,4.80
2022-08-30T21:51:54.727Z,5.20
2022-08-30T21:54:24.660Z,4.50
2022-08-30T21:57:01.601Z,4.20
2022-08-30T21:59:29.199Z,5.00
2022-08-30T22:01:59.128Z,3.90
2022-08-30T22:04:27.448Z,3.50
2022-08-30T22:06:55.193Z,3.60
2022-08-30T22:09:25.424Z,3.40
2022-08-30T22:11:54.838Z,3.80
2022-08-30T22:14:22.745Z,4.20
2022-08-30T22:16:51.211Z,4.20
2022-08-30T22:19:23.054Z,3.50
2022-08-30T22:21:52.510Z,3.80
2022-08-30T22:24:24.042Z,4.00
2022-08-30T22:26:51.797Z,4.20
2022-08-30T22:29:19.487Z,3.90
2022-08-30T22:31:47.137Z,4.10
2022-08-30T22:34:14.751Z,4.20
2022-08-30T22:36:42.312Z,4.40
2022-08-30T22:39:10.417Z,4.00
2022-08-30T22:41:38.377Z,4.40
2022-08-30T22:44:06.466Z,4.20
2022-08-30T22:46:36.541Z,3.80
2022-08-30T22:49:08.369Z,3.90
2022-08-30T22:51:37.225Z,4.10
2022-08-30T22:54:07.651Z,4.30
2022-08-30T22:56:38.121Z,4.40
2022-08-30T22:59:07.506Z,4.10
2022-08-30T23:01:40.020Z,4.10
2022-08-30T23:04:09.238Z,4.20
2022-08-30T23:06:37.376Z,4.10
2022-08-30T23:09:07.178Z,4.00
2022-08-30T23:11:35.413Z,4.10
2022-08-30T23:14:05.156Z,4.40
2022-08-30T23:16:34.224Z,4.10
2022-08-30T23:19:02.160Z,3.90
2022-08-30T23:21:31.217Z,3.70
2022-08-30T23:24:18.469Z,4.10
2022-08-30T23:27:05.624Z,3.70
2022-08-30T23:29:53.627Z,3.90
2022-08-30T23:32:40.987Z,3.90
2022-08-30T23:35:31.110Z,3.50
2022-08-30T23:38:21.441Z,4.20
2022-08-30T23:41:07.839Z,4.10
2022-08-30T23:43:54.764Z,4.30
2022-08-30T23:46:41.288Z,3.60
2022-08-30T23:49:28.191Z,3.70
2022-08-30T23:52:14.646Z,3.30
2022-08-30T23:55:00.974Z,3.30
2022-08-30T23:57:47.621Z,4.00
